createdAt,value
2023-05-11T00:00:16.964Z,1.23
2023-05-11T00:02:46.820Z,1.50
2023-05-11T00:05:14.621Z,1.03
2023-05-11T00:07:42.318Z,1.03
2023-05-11T00:10:10.894Z,1.10
2023-05-11T00:12:41.349Z,1.00
2023-05-11T00:15:09.688Z,1.07
2023-05-11T00:17:37.345Z,1.47
2023-05-11T00:20:05.623Z,1.17
2023-05-11T00:22:33.328Z,0.83
2023-05-11T00:25:01.011Z,1.13
2023-05-11T00:27:28.694Z,1.00
2023-05-11T00:29:58.032Z,1.10
2023-05-11T00:32:25.933Z,1.33
2023-05-11T00:34:53.580Z,0.80
2023-05-11T00:37:21.368Z,1.10
2023-05-11T00:39:49.004Z,0.97
2023-05-11T00:42:17.218Z,1.23
2023-05-11T00:44:44.930Z,0.80
2023-05-11T00:47:14.195Z,1.00
2023-05-11T00:49:42.548Z,1.10
2023-05-11T00:52:10.457Z,1.10
2023-05-11T00:54:38.279Z,1.10
2023-05-11T00:57:05.924Z,1.00
2023-05-11T00:59:33.686Z,1.07
2023-05-11T01:02:01.515Z,0.93
2023-05-11T01:04:31.470Z,1.10
2023-05-11T01:07:07.778Z,0.97
2023-05-11T01:09:55.774Z,1.00
2023-05-11T01:12:33.302Z,0.80
2023-05-11T01:15:07.507Z,0.93
2023-05-11T01:17:45.816Z,1.03
2023-05-11T01:20:19.752Z,0.90
2023-05-11T01:23:09.706Z,1.13
2023-05-11T01:25:57.961Z,0.93
2023-05-11T01:28:44.598Z,1.00
2023-05-11T01:31:16.426Z,1.10
2023-05-11T01:33:52.553Z,1.10
2023-05-11T01:36:21.911Z,1.57
2023-05-11T01:38:51.170Z,1.13
2023-05-11T01:41:21.976Z,1.20
2023-05-11T01:43:58.311Z,0.83
2023-05-11T01:46:31.658Z,1.03
2023-05-11T01:49:00.707Z,0.90
2023-05-11T01:51:32.071Z,0.73
2023-05-11T01:54:01.683Z,0.83
2023-05-11T01:56:30.337Z,1.00
2023-05-11T01:58:59.979Z,0.90
2023-05-11T02:01:30.745Z,0.80
2023-05-11T02:03:59.993Z,0.90
2023-05-11T02:06:30.310Z,0.90
2023-05-11T02:09:00.509Z,0.90
2023-05-11T02:11:30.193Z,0.73
2023-05-11T02:13:59.659Z,1.03
2023-05-11T02:16:30.172Z,1.30
2023-05-11T02:18:59.813Z,0.80
2023-05-11T02:21:28.462Z,1.10
2023-05-11T02:23:57.745Z,0.70
2023-05-11T02:26:25.547Z,0.87
2023-05-11T02:28:53.325Z,1.00
2023-05-11T02:31:26.262Z,0.70
2023-05-11T02:34:00.708Z,1.00
2023-05-11T02:36:30.803Z,0.93
2023-05-11T02:39:05.176Z,1.00
2023-05-11T02:41:34.071Z,0.90
2023-05-11T02:44:05.006Z,1.17
2023-05-11T02:46:36.350Z,0.87
2023-05-11T02:49:09.345Z,0.90
2023-05-11T02:51:38.823Z,0.90
2023-05-11T02:54:09.760Z,0.90
2023-05-11T02:56:37.802Z,0.90
2023-05-11T02:59:05.928Z,1.40
2023-05-11T03:01:34.818Z,1.30
2023-05-11T03:04:06.686Z,1.13
2023-05-11T03:06:34.607Z,0.90
2023-05-11T03:09:02.783Z,0.90
2023-05-11T03:11:31.461Z,0.80
2023-05-11T03:13:59.630Z,0.90
2023-05-11T03:16:27.987Z,1.40
2023-05-11T03:18:56.575Z,1.03
2023-05-11T03:21:26.778Z,0.90
2023-05-11T03:23:55.523Z,1.10
2023-05-11T03:26:25.341Z,1.00
2023-05-11T03:28:54.341Z,1.00
2023-05-11T03:31:22.088Z,0.90
2023-05-11T03:33:49.854Z,1.10
2023-05-11T03:36:18.932Z,1.00
2023-05-11T03:38:49.852Z,1.10
2023-05-11T03:41:19.009Z,1.20
2023-05-11T03:43:51.613Z,1.00
2023-05-11T03:46:22.230Z,0.80
2023-05-11T03:48:51.030Z,1.40
2023-05-11T03:51:19.027Z,0.77
2023-05-11T03:53:48.729Z,1.13
2023-05-11T03:56:17.487Z,0.90
2023-05-11T03:58:45.890Z,1.20
2023-05-11T04:01:14.475Z,1.10
2023-05-11T04:03:50.206Z,1.20
2023-05-11T04:06:18.915Z,1.40
2023-05-11T04:08:47.989Z,1.17
2023-05-11T04:11:15.720Z,0.90
2023-05-11T04:13:43.522Z,1.10
2023-05-11T04:16:11.289Z,1.30
2023-05-11T04:18:38.968Z,1.00
2023-05-11T04:21:06.918Z,1.10
2023-05-11T04:23:34.668Z,1.00
2023-05-11T04:26:03.834Z,1.50
2023-05-11T04:28:31.626Z,1.10
2023-05-11T04:30:59.432Z,1.10
2023-05-11T04:33:27.146Z,1.10
2023-05-11T04:35:56.100Z,1.13
2023-05-11T04:38:24.049Z,1.03
2023-05-11T04:40:51.736Z,1.10
2023-05-11T04:43:25.275Z,1.30
2023-05-11T04:45:58.909Z,1.30
2023-05-11T04:48:27.193Z,1.20
2023-05-11T04:50:56.256Z,1.07
2023-05-11T04:53:27.877Z,1.10
2023-05-11T04:55:57.720Z,1.03
2023-05-11T04:58:28.157Z,1.30
2023-05-11T05:00:57.005Z,1.63
2023-05-11T05:03:24.891Z,1.47
2023-05-11T05:05:53.715Z,1.17
2023-05-11T05:08:23.580Z,1.27
2023-05-11T05:10:54.362Z,1.20
2023-05-11T05:13:27.265Z,0.93
2023-05-11T05:15:57.487Z,1.40
2023-05-11T05:18:27.939Z,1.10
2023-05-11T05:20:57.148Z,1.17
2023-05-11T05:23:28.070Z,1.20
2023-05-11T05:25:57.173Z,1.20
2023-05-11T05:28:27.768Z,1.10
2023-05-11T05:31:02.553Z,1.03
2023-05-11T05:33:31.595Z,0.93
2023-05-11T05:36:04.721Z,1.00
2023-05-11T05:38:32.736Z,1.10
2023-05-11T05:43:55.576Z,1.43
2023-05-11T05:46:25.026Z,1.50
2023-05-11T05:48:55.338Z,1.60
2023-05-11T05:51:26.387Z,1.20
2023-05-11T05:53:54.993Z,1.60
2023-05-11T05:56:25.004Z,1.37
2023-05-11T05:58:53.585Z,1.40
2023-05-11T06:01:22.227Z,1.33
2023-05-11T06:03:55.079Z,1.17
2023-05-11T06:06:26.196Z,1.07
2023-05-11T06:08:56.726Z,1.20
2023-05-11T06:11:25.568Z,1.80
2023-05-11T06:13:53.986Z,1.00
2023-05-11T06:16:22.113Z,1.30
2023-05-11T06:18:56.874Z,1.27
2023-05-11T06:21:28.278Z,1.40
2023-05-11T06:23:57.261Z,1.10
2023-05-11T06:26:30.581Z,1.17
2023-05-11T06:29:00.978Z,1.13
2023-05-11T06:31:30.884Z,1.30
2023-05-11T06:34:00.573Z,1.30
2023-05-11T06:36:28.346Z,1.30
2023-05-11T06:38:56.071Z,1.60
2023-05-11T06:41:24.628Z,1.40
2023-05-11T06:43:53.532Z,1.20
2023-05-11T06:46:25.238Z,1.07
2023-05-11T06:48:54.600Z,1.27
2023-05-11T06:51:24.415Z,1.37
2023-05-11T06:53:58.832Z,1.27
2023-05-11T06:56:29.095Z,1.10
2023-05-11T06:58:59.515Z,1.30
2023-05-11T07:01:28.227Z,1.37
2023-05-11T07:03:57.504Z,1.17
2023-05-11T07:06:30.380Z,1.10
2023-05-11T07:09:02.808Z,1.60
2023-05-11T07:11:34.821Z,1.77
2023-05-11T07:14:05.225Z,1.07
2023-05-11T07:16:33.019Z,1.40
2023-05-11T07:19:02.284Z,2.20
2023-05-11T07:21:34.401Z,1.20
2023-05-11T07:26:46.129Z,1.67
2023-05-11T07:29:14.616Z,1.80
2023-05-11T07:31:52.945Z,1.30
2023-05-11T07:34:21.639Z,1.50
2023-05-11T07:36:51.745Z,1.17
2023-05-11T07:39:25.641Z,1.40
2023-05-11T07:41:58.398Z,1.20
2023-05-11T07:44:28.845Z,1.20
2023-05-11T07:46:58.599Z,1.13
2023-05-11T07:49:39.875Z,1.50
2023-05-11T07:52:16.600Z,1.30
2023-05-11T07:54:45.002Z,1.37
2023-05-11T08:01:17.354Z,1.40
2023-05-11T08:03:45.329Z,1.57
2023-05-11T08:06:16.921Z,1.43
2023-05-11T08:08:48.332Z,1.40
2023-05-11T08:11:16.111Z,1.53
2023-05-11T08:13:44.318Z,1.20
2023-05-11T08:16:12.407Z,1.20
2023-05-11T08:18:46.745Z,1.37
2023-05-11T08:21:16.138Z,1.53
2023-05-11T08:23:45.270Z,1.20
2023-05-11T08:26:17.136Z,1.40
2023-05-11T08:28:47.916Z,1.23
2023-05-11T08:31:18.873Z,1.37
2023-05-11T08:33:48.566Z,1.60
2023-05-11T08:36:20.498Z,1.57
2023-05-11T08:38:50.393Z,1.33
2023-05-11T08:41:24.493Z,1.87
2023-05-11T08:43:55.568Z,1.60
2023-05-11T08:46:32.384Z,2.00
2023-05-11T08:49:02.652Z,1.70
2023-05-11T08:51:31.205Z,2.10
2023-05-11T08:54:13.126Z,2.27
2023-05-11T08:56:43.956Z,1.60
2023-05-11T08:59:20.972Z,1.77
2023-05-11T09:21:14.006Z,2.37
2023-05-11T09:23:41.935Z,2.30
2023-05-11T09:26:15.071Z,3.20
2023-05-11T09:29:02.376Z,2.57
2023-05-11T09:31:39.528Z,1.93
2023-05-11T09:34:15.716Z,2.17
2023-05-11T09:36:46.283Z,2.57
2023-05-11T09:39:17.596Z,2.07
2023-05-11T09:42:14.776Z,1.80
2023-05-11T09:44:42.668Z,2.20
2023-05-11T09:47:14.931Z,1.90
2023-05-11T09:49:44.188Z,1.60
2023-05-11T09:52:14.741Z,1.63
2023-05-11T09:54:44.796Z,1.40
2023-05-11T09:57:27.155Z,1.63
2023-05-11T09:59:56.443Z,1.90
2023-05-11T10:02:26.237Z,2.00
2023-05-11T10:04:56.028Z,1.60
2023-05-11T10:07:29.759Z,1.57
2023-05-11T10:09:58.698Z,2.43
2023-05-11T10:12:27.649Z,2.00
2023-05-11T10:14:59.768Z,1.87
2023-05-11T10:17:28.235Z,1.90
2023-05-11T10:19:57.671Z,1.87
2023-05-11T10:22:26.588Z,1.70
2023-05-11T10:24:57.675Z,1.90
2023-05-11T10:27:26.058Z,2.30
2023-05-11T10:29:53.987Z,1.80
2023-05-11T10:32:22.651Z,2.17
2023-05-11T10:34:51.856Z,2.60
2023-05-11T10:37:21.294Z,1.90
2023-05-11T10:39:51.044Z,2.27
2023-05-11T10:42:37.203Z,2.13
2023-05-11T10:45:21.514Z,1.73
2023-05-11T10:48:27.848Z,2.00
2023-05-11T10:51:08.873Z,1.40
2023-05-11T10:53:49.304Z,1.73
2023-05-11T10:56:44.807Z,2.20
2023-05-11T10:59:41.910Z,1.50
2023-05-11T11:02:10.174Z,1.40
2023-05-11T11:04:46.513Z,1.37
2023-05-11T11:07:17.877Z,1.93
2023-05-11T11:09:56.123Z,2.47
2023-05-11T11:12:26.943Z,2.10
2023-05-11T11:14:58.616Z,2.27
2023-05-11T11:17:31.238Z,1.87
2023-05-11T11:20:01.032Z,1.90
2023-05-11T11:22:47.255Z,1.90
2023-05-11T11:25:17.228Z,2.20
2023-05-11T11:27:59.420Z,2.30
2023-05-11T11:30:30.810Z,1.90
2023-05-11T11:33:32.814Z,1.93
2023-05-11T11:36:00.609Z,1.90
2023-05-11T11:38:29.596Z,1.63
2023-05-11T11:40:57.511Z,1.70
2023-05-11T11:43:26.761Z,2.30
2023-05-11T11:45:57.205Z,1.60
2023-05-11T11:48:31.180Z,2.50
2023-05-11T11:51:04.573Z,1.70
2023-05-11T11:54:09.153Z,1.70
2023-05-11T11:56:44.730Z,1.40
2023-05-11T11:59:14.992Z,1.70
2023-05-11T12:01:46.376Z,1.43
2023-05-11T12:04:39.433Z,1.50
2023-05-11T12:07:10.259Z,1.17
2023-05-11T12:09:40.937Z,1.00
2023-05-11T12:12:10.274Z,0.80
2023-05-11T12:14:38.290Z,1.17
2023-05-11T12:17:13.471Z,1.67
2023-05-11T12:19:43.400Z,1.30
2023-05-11T12:22:14.176Z,1.13
2023-05-11T12:24:42.407Z,1.13
2023-05-11T12:27:10.357Z,1.43
2023-05-11T12:29:38.664Z,1.90
2023-05-11T12:32:12.754Z,1.07
2023-05-11T12:34:40.520Z,1.27
2023-05-11T12:37:08.728Z,1.30
2023-05-11T12:39:37.125Z,1.60
2023-05-11T12:42:05.568Z,1.50
2023-05-11T12:44:34.175Z,1.37
2023-05-11T12:47:02.184Z,1.70
2023-05-11T12:49:31.329Z,1.60
2023-05-11T12:52:04.065Z,1.90
2023-05-11T12:54:33.797Z,2.20
2023-05-11T12:57:02.911Z,1.77
2023-05-11T12:59:33.075Z,2.20
2023-05-11T13:02:12.425Z,2.00
2023-05-11T13:04:43.022Z,1.73
2023-05-11T13:07:11.537Z,1.73
2023-05-11T13:09:40.348Z,1.63
2023-05-11T13:12:19.612Z,1.87
2023-05-11T13:14:48.858Z,1.40
2023-05-11T13:17:30.959Z,1.73
2023-05-11T13:20:16.620Z,1.30
2023-05-11T13:22:44.651Z,1.40
2023-05-11T13:25:12.705Z,0.90
2023-05-11T13:27:40.385Z,1.13
2023-05-11T13:30:09.465Z,1.60
2023-05-11T13:32:37.575Z,1.67
2023-05-11T13:35:08.096Z,1.60
2023-05-11T13:37:35.830Z,1.53
2023-05-11T13:40:03.870Z,1.37
2023-05-11T13:42:32.306Z,1.20
2023-05-11T13:45:00.105Z,1.23
2023-05-11T13:47:27.964Z,0.90
2023-05-11T13:49:55.736Z,1.40
2023-05-11T13:52:24.917Z,1.17
2023-05-11T13:54:52.765Z,1.30
2023-05-11T13:57:20.855Z,1.30
2023-05-11T13:59:48.864Z,1.10
2023-05-11T14:02:16.605Z,2.70
2023-05-11T14:04:44.578Z,1.20
2023-05-11T14:07:12.318Z,0.93
2023-05-11T14:09:43.686Z,1.13
2023-05-11T14:12:11.770Z,1.40
2023-05-11T14:14:39.553Z,1.20
2023-05-11T14:17:07.457Z,1.17
2023-05-11T14:19:35.347Z,1.13
2023-05-11T14:22:03.432Z,1.40
2023-05-11T14:24:31.102Z,0.90
2023-05-11T14:27:00.376Z,1.30
2023-05-11T14:29:28.107Z,1.27
2023-05-11T14:31:56.494Z,1.30
2023-05-11T14:34:24.197Z,1.60
2023-05-11T14:36:52.357Z,1.10
2023-05-11T14:39:20.202Z,1.00
2023-05-11T14:41:48.215Z,1.30
2023-05-11T14:44:17.356Z,1.70
2023-05-11T14:46:45.293Z,1.70
2023-05-11T14:49:13.099Z,1.40
2023-05-11T14:51:40.822Z,1.80
2023-05-11T14:54:08.505Z,1.40
2023-05-11T14:56:36.267Z,1.40
2023-05-11T14:59:04.054Z,1.33
2023-05-11T15:01:33.224Z,1.10
2023-05-11T15:04:01.106Z,1.07
2023-05-11T15:06:28.858Z,1.20
2023-05-11T15:08:56.533Z,1.20
2023-05-11T15:11:24.254Z,1.10
2023-05-11T15:13:52.063Z,1.10
2023-05-11T15:16:19.852Z,1.40
2023-05-11T15:18:48.976Z,1.03
2023-05-11T15:21:16.833Z,1.13
2023-05-11T15:23:44.514Z,1.00
2023-05-11T15:26:14.381Z,1.10
2023-05-11T15:28:42.256Z,1.47
2023-05-11T15:31:10.095Z,1.10
2023-05-11T15:33:37.843Z,1.57
2023-05-11T15:36:13.498Z,1.33
2023-05-11T15:38:41.273Z,1.27
2023-05-11T15:41:09.354Z,1.50
2023-05-11T15:43:37.188Z,1.40
2023-05-11T15:46:05.698Z,1.20
2023-05-11T15:48:33.655Z,1.10
2023-05-11T15:51:01.964Z,1.23
2023-05-11T15:53:31.325Z,1.10
2023-05-11T15:55:59.276Z,1.07
2023-05-11T15:58:29.152Z,1.17
2023-05-11T16:00:58.562Z,1.03
2023-05-11T16:03:26.727Z,1.50
2023-05-11T16:05:55.958Z,1.30
2023-05-11T16:08:23.648Z,1.73
2023-05-11T16:10:52.981Z,1.63
2023-05-11T16:13:20.864Z,1.43
2023-05-11T16:15:48.651Z,1.73
2023-05-11T16:18:17.161Z,1.70
2023-05-11T16:20:45.015Z,1.57
2023-05-11T16:23:13.540Z,1.27
2023-05-11T16:25:41.296Z,1.50
2023-05-11T16:28:10.371Z,1.30
2023-05-11T16:30:38.122Z,1.53
2023-05-11T16:33:06.778Z,1.57
2023-05-11T16:35:34.687Z,1.30
2023-05-11T16:38:02.679Z,1.83
2023-05-11T16:40:30.476Z,1.77
2023-05-11T16:42:58.173Z,1.20
2023-05-11T16:45:27.333Z,1.40
2023-05-11T16:47:55.089Z,1.33
2023-05-11T16:50:23.220Z,2.13
2023-05-11T16:52:51.069Z,1.53
2023-05-11T16:55:19.424Z,1.90
2023-05-11T16:57:48.552Z,1.60
2023-05-11T17:00:17.186Z,1.60
2023-05-11T17:02:47.281Z,1.50
2023-05-11T17:05:18.013Z,2.00
2023-05-11T17:07:47.121Z,1.60
2023-05-11T17:10:14.830Z,1.60
2023-05-11T17:12:42.800Z,1.70
2023-05-11T17:15:10.994Z,1.47
2023-05-11T17:17:38.914Z,1.83
2023-05-11T17:20:10.101Z,1.50
2023-05-11T17:22:37.959Z,1.50
2023-05-11T17:25:07.208Z,2.40
2023-05-11T17:27:36.452Z,2.23
2023-05-11T17:30:04.638Z,2.03
2023-05-11T17:32:32.874Z,1.63
2023-05-11T17:35:01.257Z,2.20
2023-05-11T17:37:32.514Z,1.70
2023-05-11T17:40:01.241Z,1.57
2023-05-11T17:42:29.528Z,2.13
2023-05-11T17:44:59.206Z,2.23
2023-05-11T17:47:27.280Z,2.27
2023-05-11T17:49:55.296Z,2.40
2023-05-11T17:52:25.173Z,2.30
2023-05-11T17:54:54.287Z,2.20
2023-05-11T17:57:23.726Z,1.80
2023-05-11T17:59:51.664Z,1.70
2023-05-11T18:02:19.678Z,2.43
2023-05-11T18:04:51.737Z,1.70
2023-05-11T18:07:19.695Z,1.63
2023-05-11T18:09:47.522Z,1.70
2023-05-11T18:12:17.654Z,1.90
2023-05-11T18:14:45.511Z,1.50
2023-05-11T18:17:14.277Z,2.00
2023-05-11T18:19:42.301Z,1.70
2023-05-11T18:22:10.801Z,2.47
2023-05-11T18:24:38.542Z,2.37
2023-05-11T18:27:06.873Z,2.20
2023-05-11T18:29:37.500Z,2.20
2023-05-11T18:32:06.088Z,2.30
2023-05-11T18:34:34.492Z,1.77
2023-05-11T18:37:03.050Z,2.27
2023-05-11T18:39:30.795Z,2.10
2023-05-11T18:42:00.921Z,2.30
2023-05-11T18:44:29.345Z,2.90
2023-05-11T18:46:58.598Z,2.13
2023-05-11T18:49:26.351Z,2.10
2023-05-11T18:51:54.133Z,1.93
2023-05-11T18:54:21.745Z,2.47
2023-05-11T18:56:49.385Z,2.40
2023-05-11T18:59:17.149Z,2.67
2023-05-11T19:01:48.012Z,2.57
2023-05-11T19:04:20.274Z,2.77
2023-05-11T19:06:47.975Z,2.67
2023-05-11T19:09:15.936Z,2.20
2023-05-11T19:11:44.288Z,2.40
2023-05-11T19:14:14.335Z,2.50
2023-05-11T19:16:42.173Z,1.93
2023-05-11T19:19:10.018Z,1.97
2023-05-11T19:21:40.454Z,1.90
2023-05-11T19:24:08.929Z,2.40
2023-05-11T19:26:38.202Z,2.33
2023-05-11T19:29:06.609Z,1.73
2023-05-11T19:31:34.759Z,1.97
2023-05-11T19:34:03.160Z,2.20
2023-05-11T19:36:31.572Z,2.13
2023-05-11T19:39:00.780Z,2.20
2023-05-11T19:41:28.589Z,2.17
2023-05-11T19:43:56.862Z,2.20
2023-05-11T19:46:24.959Z,2.00
2023-05-11T19:48:52.911Z,2.63
2023-05-11T19:51:20.673Z,1.97
2023-05-11T19:53:48.779Z,2.40
2023-05-11T19:56:18.268Z,2.30
2023-05-11T19:58:46.601Z,2.40
2023-05-11T20:01:14.748Z,2.50
2023-05-11T20:03:42.916Z,2.37
2023-05-11T20:06:10.905Z,2.37
2023-05-11T20:08:38.640Z,3.17
2023-05-11T20:11:06.852Z,2.80
2023-05-11T20:13:36.113Z,2.60
2023-05-11T20:16:04.520Z,2.70
2023-05-11T20:18:32.461Z,2.40
2023-05-11T20:21:00.260Z,2.80
2023-05-11T20:23:28.392Z,2.70
2023-05-11T20:25:56.459Z,2.33
2023-05-11T20:28:27.132Z,3.20
2023-05-11T20:30:57.205Z,2.83
2023-05-11T20:35:56.004Z,2.60
2023-05-11T20:38:25.927Z,2.73
2023-05-11T20:40:57.919Z,2.80
2023-05-11T20:43:27.134Z,2.97
2023-05-11T20:46:02.213Z,2.93
2023-05-11T20:48:39.990Z,2.90
2023-05-11T20:51:08.757Z,3.10
2023-05-11T20:53:36.649Z,2.80
2023-05-11T20:56:04.771Z,3.17
2023-05-11T20:58:32.658Z,2.53
2023-05-11T21:01:02.027Z,3.00
2023-05-11T21:03:29.893Z,2.93
2023-05-11T21:05:57.829Z,2.90
2023-05-11T21:08:25.712Z,2.50
2023-05-11T21:10:53.552Z,3.20
2023-05-11T21:13:21.295Z,3.43
2023-05-11T21:15:49.039Z,3.10
2023-05-11T21:18:18.428Z,3.10
2023-05-11T21:20:46.389Z,3.17
2023-05-11T21:23:14.322Z,2.90
2023-05-11T21:25:42.074Z,2.90
2023-05-11T21:28:09.764Z,3.30
2023-05-11T21:30:37.705Z,3.03
2023-05-11T21:33:05.498Z,2.93
2023-05-11T21:35:34.721Z,2.90
2023-05-11T21:38:02.773Z,2.87
2023-05-11T21:40:30.540Z,3.03
2023-05-11T21:42:58.236Z,2.83
2023-05-11T21:45:25.885Z,3.00
2023-05-11T21:47:53.682Z,3.40
2023-05-11T21:50:21.770Z,2.80
2023-05-11T21:52:50.973Z,3.30
2023-05-11T21:55:18.716Z,3.40
2023-05-11T21:57:46.371Z,3.80
2023-05-11T22:00:18.575Z,3.27
2023-05-11T22:02:46.699Z,3.40
2023-05-11T22:05:14.454Z,3.47
2023-05-11T22:07:42.189Z,3.30
2023-05-11T22:10:12.145Z,3.27
2023-05-11T22:12:40.024Z,3.40
2023-05-11T22:15:08.855Z,3.40
2023-05-11T22:17:37.506Z,3.20
2023-05-11T22:20:06.566Z,3.50
2023-05-11T22:22:34.839Z,3.33
2023-05-11T22:25:02.655Z,3.70
2023-05-11T22:27:32.355Z,3.43
2023-05-11T22:30:00.189Z,3.30
2023-05-11T22:32:28.082Z,3.00
2023-05-11T22:34:59.379Z,3.70
2023-05-11T22:37:28.368Z,3.33
2023-05-11T22:39:56.088Z,4.37
2023-05-11T22:42:23.816Z,3.40
2023-05-11T22:44:53.422Z,3.27
2023-05-11T22:47:21.449Z,3.23
2023-05-11T22:49:49.147Z,3.63
2023-05-11T22:52:17.605Z,3.40
2023-05-11T22:54:45.291Z,3.60
2023-05-11T22:57:16.093Z,4.03
2023-05-11T22:59:46.555Z,4.63
2023-05-11T23:02:15.593Z,3.87
2023-05-11T23:04:43.288Z,3.70
2023-05-11T23:07:12.680Z,3.40
2023-05-11T23:09:40.563Z,3.73
2023-05-11T23:12:09.001Z,3.83
2023-05-11T23:14:36.656Z,4.17
2023-05-11T23:17:04.352Z,3.90
2023-05-11T23:19:33.748Z,3.67
2023-05-11T23:22:01.691Z,3.87
2023-05-11T23:24:29.898Z,4.43
2023-05-11T23:26:57.648Z,4.63
2023-05-11T23:29:26.908Z,4.50
2023-05-11T23:31:55.751Z,4.70
2023-05-11T23:34:23.452Z,5.00
2023-05-11T23:36:52.519Z,4.83
2023-05-11T23:39:20.411Z,4.60
2023-05-11T23:41:48.117Z,5.17
2023-05-11T23:44:19.988Z,5.40
2023-05-11T23:46:47.701Z,5.10
2023-05-11T23:49:15.495Z,4.70
2023-05-11T23:51:43.119Z,5.10
2023-05-11T23:54:12.223Z,5.40
2023-05-11T23:56:39.914Z,5.43
2023-05-11T23:59:07.667Z,4.93
